Time;durP1;ratioP1;P1;durP2;ratioP2;P2;SDS_P1;SDS_P2;PMS_P1;PMS_P2;Temp;Humidity;BMP_temperature;BMP_pressure;BME280_temperature;BME280_humidity;BME280_pressure;Samples;Min_cycle;Max_cycle;Signal;HPM_P1;HPM_P2
2023/12/07 00:04:38;;;;;;;32.67;20.50;;;;;;;;;;10502749;28;20484;-85
2023/12/07 00:09:41;;;;;;;35.67;21.42;;;;;;;;;;10499036;28;20482;-84
2023/12/07 00:14:43;;;;;;;31.57;19.73;;;;;;;;;;10508165;28;20396;-85
2023/12/07 00:19:47;;;;;;;30.25;19.17;;;;;;;;;;10494895;28;20499;-84
2023/12/07 00:24:50;;;;;;;31.50;19.30;;;;;;;;;;10517881;28;20972;-85
2023/12/07 00:29:53;;;;;;;30.90;18.85;;;;;;;;;;10516358;28;20400;-85
2023/12/07 00:34:56;;;;;;;29.55;19.48;;;;;;;;;;10506938;28;20409;-84
2023/12/07 00:39:59;;;;;;;32.45;18.95;;;;;;;;;;10501744;28;20423;-85
2023/12/07 00:45:01;;;;;;;30.92;19.25;;;;;;;;;;10511178;28;20463;-85
2023/12/07 00:50:07;;;;;;;29.65;18.23;;;;;;;;;;10507940;28;20474;-85
2023/12/07 00:55:09;;;;;;;31.30;19.05;;;;;;;;;;10501984;28;20410;-84
2023/12/07 01:00:13;;;;;;;29.20;18.45;;;;;;;;;;10502281;28;20473;-85
2023/12/07 01:05:17;;;;;;;31.40;18.63;;;;;;;;;;10498598;28;20460;-85
2023/12/07 01:10:19;;;;;;;26.88;18.15;;;;;;;;;;10511056;28;20412;-86
2023/12/07 01:45:30;;;;;;;28.07;16.40;;;;;;;;;;10577721;27;20523;-85
2023/12/07 01:50:33;;;;;;;27.80;16.33;;;;;;;;;;10591173;27;20403;-85
2023/12/07 01:55:36;;;;;;;26.58;16.80;;;;;;;;;;10594219;27;20398;-86
2023/12/07 02:00:40;;;;;;;27.02;16.58;;;;;;;;;;10594195;27;20454;-86
2023/12/07 02:05:44;;;;;;;26.27;17.52;;;;;;;;;;10599669;27;20461;-86
2023/12/07 02:10:46;;;;;;;27.25;15.75;;;;;;;;;;10592130;27;20406;-86
2023/12/07 02:15:51;;;;;;;27.03;16.60;;;;;;;;;;10593736;27;20405;-85
2023/12/07 02:21:03;;;;;;;28.40;17.50;;;;;;;;;;10580606;27;20454;-86
2023/12/07 02:26:09;;;;;;;28.85;16.92;;;;;;;;;;10602492;27;20453;-86
2023/12/07 02:31:13;;;;;;;29.80;17.40;;;;;;;;;;10592819;27;20462;-85
2023/12/07 02:36:18;;;;;;;27.85;17.38;;;;;;;;;;10589434;27;20397;-86
2023/12/07 02:41:21;;;;;;;28.80;17.47;;;;;;;;;;10597464;27;20425;-86
2023/12/07 02:46:26;;;;;;;30.63;17.73;;;;;;;;;;10593002;27;20403;-86
2023/12/07 02:51:28;;;;;;;27.83;17.63;;;;;;;;;;10604629;27;20524;-86
2023/12/07 02:56:30;;;;;;;27.92;18.40;;;;;;;;;;10592996;27;20398;-86
2023/12/07 03:01:34;;;;;;;30.80;17.58;;;;;;;;;;10591215;27;20415;-86
2023/12/07 03:06:36;;;;;;;26.75;17.10;;;;;;;;;;10597477;27;20966;-86
2023/12/07 03:11:39;;;;;;;26.47;16.60;;;;;;;;;;10594007;27;20876;-87
2023/12/07 03:16:43;;;;;;;26.38;16.75;;;;;;;;;;10600412;27;20412;-86
2023/12/07 03:21:45;;;;;;;27.15;16.25;;;;;;;;;;10591922;27;20438;-86
2023/12/07 03:26:48;;;;;;;29.10;16.40;;;;;;;;;;10603160;27;20423;-86
2023/12/07 03:31:52;;;;;;;25.55;15.30;;;;;;;;;;10587465;27;20414;-86
2023/12/07 03:36:54;;;;;;;26.77;15.55;;;;;;;;;;10600665;27;20395;-86
2023/12/07 03:41:57;;;;;;;26.27;16.10;;;;;;;;;;10595535;27;20790;-85
2023/12/07 03:47:01;;;;;;;24.63;15.02;;;;;;;;;;10583958;27;20405;-84
2023/12/07 03:52:04;;;;;;;22.45;14.75;;;;;;;;;;10602925;27;20434;-85
2023/12/07 03:57:06;;;;;;;22.27;15.17;;;;;;;;;;10591791;27;20763;-85
2023/12/07 04:02:10;;;;;;;21.80;14.18;;;;;;;;;;10580666;27;21472;-84
2023/12/07 04:07:13;;;;;;;22.07;14.07;;;;;;;;;;10582037;27;20395;-84
2023/12/07 04:12:15;;;;;;;21.70;13.45;;;;;;;;;;10592058;27;20947;-85
2023/12/07 04:17:19;;;;;;;21.57;13.67;;;;;;;;;;10603860;27;20393;-85
2023/12/07 04:22:21;;;;;;;20.93;13.40;;;;;;;;;;10589906;27;20434;-84
2023/12/07 04:27:24;;;;;;;20.02;12.20;;;;;;;;;;10595807;27;20398;-84
2023/12/07 04:32:27;;;;;;;15.52;10.55;;;;;;;;;;10594149;27;20400;-84
2023/12/07 04:37:30;;;;;;;15.77;10.80;;;;;;;;;;10593418;28;20397;-85
2023/12/07 04:42:32;;;;;;;14.43;9.90;;;;;;;;;;10594551;27;20426;-84
2023/12/07 04:47:36;;;;;;;15.93;9.85;;;;;;;;;;10590665;27;20918;-84
2023/12/07 04:52:38;;;;;;;16.45;9.90;;;;;;;;;;10591245;27;20391;-85
2023/12/07 04:57:41;;;;;;;14.63;9.60;;;;;;;;;;10595949;27;20406;-84
2023/12/07 05:02:44;;;;;;;16.60;9.77;;;;;;;;;;10604428;27;20421;-84
2023/12/07 05:07:47;;;;;;;15.20;9.53;;;;;;;;;;10600876;27;20768;-84
2023/12/07 05:12:50;;;;;;;13.90;8.93;;;;;;;;;;10597028;27;20399;-85
2023/12/07 05:17:53;;;;;;;14.02;9.23;;;;;;;;;;10597029;27;21032;-84
2023/12/07 05:22:56;;;;;;;13.93;8.83;;;;;;;;;;10605479;27;20479;-85
2023/12/07 05:27:58;;;;;;;15.45;9.57;;;;;;;;;;10594285;27;20399;-84
2023/12/07 05:33:02;;;;;;;14.73;9.60;;;;;;;;;;10598653;27;20424;-84
2023/12/07 05:38:04;;;;;;;17.05;10.73;;;;;;;;;;10600221;27;20395;-85
2023/12/07 05:43:07;;;;;;;19.50;10.00;;;;;;;;;;10592745;27;20472;-83
2023/12/07 05:48:12;;;;;;;16.00;10.00;;;;;;;;;;10595849;27;20435;-85
2023/12/07 05:53:14;;;;;;;14.47;9.83;;;;;;;;;;10591875;27;20474;-83
2023/12/07 05:58:17;;;;;;;15.30;9.43;;;;;;;;;;10590559;27;20471;-85
2023/12/07 06:03:21;;;;;;;14.63;9.85;;;;;;;;;;10601110;27;20473;-84
2023/12/07 06:08:23;;;;;;;15.35;8.98;;;;;;;;;;10596393;27;20451;-84
2023/12/07 06:13:26;;;;;;;16.98;10.45;;;;;;;;;;10597790;27;20748;-84
2023/12/07 06:18:29;;;;;;;13.60;9.32;;;;;;;;;;10597939;27;20401;-85
2023/12/07 06:23:32;;;;;;;16.13;9.70;;;;;;;;;;10584857;27;20423;-85
2023/12/07 06:28:34;;;;;;;14.68;9.57;;;;;;;;;;10596416;27;20423;-86
2023/12/07 06:33:38;;;;;;;16.60;10.07;;;;;;;;;;10601753;27;20401;-86
2023/12/07 06:38:41;;;;;;;16.48;9.77;;;;;;;;;;10591106;27;20407;-86
2023/12/07 06:43:44;;;;;;;39.08;24.00;;;;;;;;;;10594439;27;20420;-87
2023/12/07 06:48:47;;;;;;;24.25;17.13;;;;;;;;;;10599404;27;20489;-86
2023/12/07 06:53:50;;;;;;;22.38;14.43;;;;;;;;;;10589984;27;20737;-87
2023/12/07 06:58:52;;;;;;;16.73;11.20;;;;;;;;;;10597254;27;20493;-88
2023/12/07 07:03:56;;;;;;;21.05;11.75;;;;;;;;;;10588074;27;20906;-88
2023/12/07 07:08:59;;;;;;;20.10;12.20;;;;;;;;;;10585898;27;20394;-87
2023/12/07 07:14:01;;;;;;;20.55;12.45;;;;;;;;;;10586468;27;20425;-87
2023/12/07 07:19:05;;;;;;;17.83;12.03;;;;;;;;;;10589350;27;20477;-87
2023/12/07 07:24:08;;;;;;;25.55;15.65;;;;;;;;;;10594035;27;20421;-88
2023/12/07 07:29:10;;;;;;;20.00;12.50;;;;;;;;;;10573905;27;20403;-87
2023/12/07 07:34:14;;;;;;;19.57;12.90;;;;;;;;;;10594083;27;20444;-87
2023/12/07 07:39:17;;;;;;;18.37;12.67;;;;;;;;;;10591565;27;20517;-87
2023/12/07 07:44:19;;;;;;;23.45;14.48;;;;;;;;;;10592421;27;20415;-87
2023/12/07 07:49:23;;;;;;;23.37;13.20;;;;;;;;;;10592776;27;20464;-86
2023/12/07 07:54:26;;;;;;;21.67;12.90;;;;;;;;;;10595141;27;20405;-87
2023/12/07 07:59:28;;;;;;;19.05;12.00;;;;;;;;;;10589892;27;20424;-87
2023/12/07 08:04:32;;;;;;;18.77;11.00;;;;;;;;;;10589586;27;20963;-87
2023/12/07 08:09:34;;;;;;;20.57;11.40;;;;;;;;;;10581044;27;20456;-87
2023/12/07 08:14:37;;;;;;;19.98;11.45;;;;;;;;;;10598766;27;21207;-89
2023/12/07 08:19:42;;;;;;;20.40;11.90;;;;;;;;;;10588781;27;20818;-87
2023/12/07 08:24:45;;;;;;;18.40;11.77;;;;;;;;;;10589767;22;20823;-85
2023/12/07 08:29:47;;;;;;;19.77;12.13;;;;;;;;;;10560069;28;20828;-86
2023/12/07 08:34:51;;;;;;;21.98;12.43;;;;;;;;;;10566857;28;20962;-85
2023/12/07 08:39:56;;;;;;;20.15;12.68;;;;;;;;;;10538351;28;20400;-85
2023/12/07 08:44:58;;;;;;;19.80;12.40;;;;;;;;;;10562227;28;20538;-85
2023/12/07 08:50:02;;;;;;;18.13;11.73;;;;;;;;;;10550271;28;20980;-85
2023/12/07 08:55:05;;;;;;;16.80;11.63;;;;;;;;;;10546204;28;20404;-85
2023/12/07 09:00:08;;;;;;;18.97;11.83;;;;;;;;;;10544415;28;20476;-86
2023/12/07 09:05:12;;;;;;;16.83;10.10;;;;;;;;;;10558706;28;20480;-86
2023/12/07 09:10:15;;;;;;;17.10;10.10;;;;;;;;;;10544538;28;20447;-85
2023/12/07 09:15:17;;;;;;;16.83;10.48;;;;;;;;;;10562317;28;20445;-86
2023/12/07 09:20:21;;;;;;;15.37;10.37;;;;;;;;;;10552837;28;20441;-87
2023/12/07 09:25:27;;;;;;;15.43;10.10;;;;;;;;;;10554976;28;20405;-86
2023/12/07 09:30:29;;;;;;;16.08;9.98;;;;;;;;;;10555801;27;20504;-87
2023/12/07 09:35:34;;;;;;;14.93;9.37;;;;;;;;;;10570022;27;20962;-86
2023/12/07 09:40:37;;;;;;;16.23;10.10;;;;;;;;;;10573871;28;20407;-87
2023/12/07 09:45:40;;;;;;;16.77;10.40;;;;;;;;;;10575278;27;20792;-86
2023/12/07 09:50:44;;;;;;;16.98;10.60;;;;;;;;;;10571598;27;20409;-87
2023/12/07 09:55:47;;;;;;;19.27;12.50;;;;;;;;;;10565125;28;20402;-88
2023/12/07 10:00:50;;;;;;;17.77;10.63;;;;;;;;;;10567379;28;20410;-87
2023/12/07 10:06:00;;;;;;;18.60;11.50;;;;;;;;;;10566109;28;20483;-86
2023/12/07 10:11:07;;;;;;;16.30;10.40;;;;;;;;;;10552439;28;20410;-84
2023/12/07 10:16:12;;;;;;;13.30;8.53;;;;;;;;;;10565854;27;20414;-86
2023/12/07 10:21:16;;;;;;;15.02;8.57;;;;;;;;;;10557077;28;20442;-84
2023/12/07 10:26:20;;;;;;;14.90;9.25;;;;;;;;;;10558875;28;20395;-84
2023/12/07 10:31:30;;;;;;;31.55;17.42;;;;;;;;;;10550038;27;20464;-85
2023/12/07 10:36:39;;;;;;;16.08;10.65;;;;;;;;;;10543505;27;20444;-85
2023/12/07 10:41:44;;;;;;;14.52;10.07;;;;;;;;;;10555335;28;20419;-85
2023/12/07 10:46:50;;;;;;;15.13;10.57;;;;;;;;;;10563428;27;20407;-86
2023/12/07 10:52:02;;;;;;;15.20;10.23;;;;;;;;;;10563894;27;20412;-88
2023/12/07 10:57:11;;;;;;;17.95;11.35;;;;;;;;;;10551776;28;20414;-85
2023/12/07 11:02:15;;;;;;;17.80;11.33;;;;;;;;;;10561269;28;20420;-86
2023/12/07 11:07:23;;;;;;;17.83;11.37;;;;;;;;;;10565100;28;20468;-86
2023/12/07 11:12:32;;;;;;;16.23;11.23;;;;;;;;;;10559552;28;20489;-87
2023/12/07 11:17:53;;;;;;;17.97;11.97;;;;;;;;;;10553512;28;20411;-86
2023/12/07 11:22:57;;;;;;;21.55;11.82;;;;;;;;;;10552890;28;20908;-86
2023/12/07 11:28:07;;;;;;;16.53;11.37;;;;;;;;;;10552450;28;20432;-87
2023/12/07 11:33:11;;;;;;;19.20;11.63;;;;;;;;;;10555135;27;20503;-86
2023/12/07 11:38:19;;;;;;;24.98;17.42;;;;;;;;;;10574676;27;20406;-85
2023/12/07 11:43:37;;;;;;;16.80;11.05;;;;;;;;;;10553215;28;20483;-85
2023/12/07 11:48:47;;;;;;;18.90;11.77;;;;;;;;;;10553701;27;20415;-87
2023/12/07 11:53:53;;;;;;;20.80;11.55;;;;;;;;;;10553881;28;20401;-87
2023/12/07 11:58:59;;;;;;;20.15;11.98;;;;;;;;;;10545099;27;20966;-87
2023/12/07 12:04:08;;;;;;;19.13;11.73;;;;;;;;;;10550315;27;20469;-87
2023/12/07 12:09:13;;;;;;;19.05;11.23;;;;;;;;;;10560097;27;20434;-86
2023/12/07 12:14:20;;;;;;;20.40;11.02;;;;;;;;;;10552393;28;20414;-86
2023/12/07 12:19:26;;;;;;;21.70;12.02;;;;;;;;;;10550007;28;20441;-87
2023/12/07 12:24:33;;;;;;;19.03;11.67;;;;;;;;;;10542401;28;20450;-88
2023/12/07 12:29:38;;;;;;;20.40;13.18;;;;;;;;;;10572645;28;21184;-87
2023/12/07 12:34:40;;;;;;;18.55;11.77;;;;;;;;;;10537098;28;20442;-87
2023/12/07 12:39:44;;;;;;;18.00;10.75;;;;;;;;;;10565588;28;20395;-86
2023/12/07 12:44:46;;;;;;;16.60;10.98;;;;;;;;;;10546010;28;20442;-85
2023/12/07 12:49:52;;;;;;;17.83;10.93;;;;;;;;;;10561181;28;20516;-86
2023/12/07 12:54:57;;;;;;;17.85;11.82;;;;;;;;;;10561120;28;20428;-87
2023/12/07 13:00:04;;;;;;;17.15;11.25;;;;;;;;;;10547729;28;20426;-86
2023/12/07 13:05:12;;;;;;;17.17;12.00;;;;;;;;;;10558659;28;20454;-86
2023/12/07 13:10:21;;;;;;;17.23;10.50;;;;;;;;;;10546735;27;21093;-85
2023/12/07 13:15:25;;;;;;;17.15;10.98;;;;;;;;;;10538060;28;20486;-86
2023/12/07 13:20:27;;;;;;;14.50;9.48;;;;;;;;;;10541888;28;20442;-85
2023/12/07 13:25:33;;;;;;;15.73;9.93;;;;;;;;;;10552148;28;20488;-84
2023/12/07 13:30:37;;;;;;;15.20;9.85;;;;;;;;;;10534379;28;20435;-85
2023/12/07 13:35:42;;;;;;;16.92;9.65;;;;;;;;;;10539189;28;20949;-85
2023/12/07 13:40:49;;;;;;;16.80;9.10;;;;;;;;;;10541800;27;20400;-87
2023/12/07 13:45:55;;;;;;;14.13;9.57;;;;;;;;;;10564784;28;20407;-86
2023/12/07 13:50:59;;;;;;;15.57;9.60;;;;;;;;;;10547097;28;20518;-87
2023/12/07 13:56:04;;;;;;;14.52;10.40;;;;;;;;;;10547889;28;20489;-87
2023/12/07 14:01:07;;;;;;;13.70;9.93;;;;;;;;;;10587075;27;20487;-88
2023/12/07 14:06:13;;;;;;;13.50;9.95;;;;;;;;;;10544387;28;20446;-87
2023/12/07 14:11:18;;;;;;;15.30;10.37;;;;;;;;;;10538975;28;20522;-85
2023/12/07 14:16:21;;;;;;;14.93;11.07;;;;;;;;;;10553459;28;20511;-86
2023/12/07 14:21:24;;;;;;;15.98;10.57;;;;;;;;;;10533313;28;20893;-87
2023/12/07 14:26:28;;;;;;;15.73;11.10;;;;;;;;;;10522268;28;20557;-86
2023/12/07 14:31:33;;;;;;;15.88;11.00;;;;;;;;;;10536914;28;20438;-85
2023/12/07 14:36:38;;;;;;;15.73;9.98;;;;;;;;;;10552792;27;20461;-84
2023/12/07 14:41:46;;;;;;;18.77;13.32;;;;;;;;;;10539315;28;20537;-84
2023/12/07 14:46:49;;;;;;;19.75;12.15;;;;;;;;;;10552039;28;20442;-85
2023/12/07 14:51:58;;;;;;;23.58;12.60;;;;;;;;;;10536591;28;20510;-83
2023/12/07 14:57:04;;;;;;;27.70;14.13;;;;;;;;;;10528575;28;20988;-84
2023/12/07 15:02:07;;;;;;;25.42;13.95;;;;;;;;;;10548169;28;20472;-84
2023/12/07 15:07:10;;;;;;;35.10;20.13;;;;;;;;;;10507271;28;20672;-85
2023/12/07 15:12:14;;;;;;;23.17;16.13;;;;;;;;;;10523699;28;20965;-86
2023/12/07 15:17:19;;;;;;;30.20;19.10;;;;;;;;;;10529491;28;21032;-88
2023/12/07 15:22:23;;;;;;;30.58;18.45;;;;;;;;;;10554982;28;21369;-87
2023/12/07 15:27:31;;;;;;;23.37;14.20;;;;;;;;;;10554928;28;20538;-88
2023/12/07 15:32:33;;;;;;;32.43;19.80;;;;;;;;;;10519341;28;20657;-86
2023/12/07 15:37:39;;;;;;;34.17;20.95;;;;;;;;;;10541385;27;20500;-87
2023/12/07 15:42:43;;;;;;;44.85;26.10;;;;;;;;;;10536414;28;20458;-87
2023/12/07 15:47:47;;;;;;;35.65;21.40;;;;;;;;;;10564168;28;20448;-87
2023/12/07 15:52:51;;;;;;;31.40;18.70;;;;;;;;;;10555688;28;20497;-87
2023/12/07 15:58:03;;;;;;;31.83;17.70;;;;;;;;;;10546667;28;20443;-87
2023/12/07 16:03:08;;;;;;;28.83;17.23;;;;;;;;;;10534200;28;20550;-86
2023/12/07 16:08:12;;;;;;;27.92;17.13;;;;;;;;;;10547644;28;20415;-87
2023/12/07 16:13:16;;;;;;;25.85;15.98;;;;;;;;;;10529866;28;20858;-88
2023/12/07 16:18:20;;;;;;;31.15;17.40;;;;;;;;;;10540753;28;20422;-95
2023/12/07 16:23:30;;;;;;;28.63;17.05;;;;;;;;;;10544108;27;20543;-86
2023/12/07 16:28:50;;;;;;;28.42;17.77;;;;;;;;;;10562338;27;20396;-93
2023/12/07 16:34:00;;;;;;;40.93;18.90;;;;;;;;;;10530551;28;20434;-85
2023/12/07 16:39:03;;;;;;;25.58;16.10;;;;;;;;;;10539107;28;20442;-86
2023/12/07 16:56:40;;;;;;;27.47;17.47;;;;;;;;;;10628388;27;20388;-82
2023/12/07 17:01:44;;;;;;;26.77;16.65;;;;;;;;;;10611814;27;20463;-90
2023/12/07 17:06:50;;;;;;;27.58;16.60;;;;;;;;;;10604373;27;20466;-89
2023/12/07 17:11:54;;;;;;;27.00;16.40;;;;;;;;;;10597999;27;20411;-90
2023/12/07 17:16:56;;;;;;;31.73;17.93;;;;;;;;;;10596774;27;20414;-90
2023/12/07 17:22:01;;;;;;;26.05;17.38;;;;;;;;;;10598017;27;20979;-90
2023/12/07 17:27:07;;;;;;;25.75;17.95;;;;;;;;;;10589267;27;20500;-92
2023/12/07 17:32:16;;;;;;;28.57;17.27;;;;;;;;;;10597444;27;20920;-93
2023/12/07 17:37:22;;;;;;;30.80;19.02;;;;;;;;;;10610838;27;20414;-96
2023/12/07 17:42:29;;;;;;;30.15;18.30;;;;;;;;;;10595720;27;20430;-94
2023/12/07 17:47:32;;;;;;;31.30;18.77;;;;;;;;;;10585719;28;20403;-92
2023/12/07 17:52:38;;;;;;;30.75;20.15;;;;;;;;;;10584347;28;20471;-94
2023/12/07 17:57:50;;;;;;;37.67;22.65;;;;;;;;;;10570005;28;20448;-94
2023/12/07 18:02:55;;;;;;;38.10;22.88;;;;;;;;;;10563025;28;20412;-95
2023/12/07 18:07:59;;;;;;;45.08;27.33;;;;;;;;;;10559820;28;20426;-90
2023/12/07 18:13:03;;;;;;;44.63;27.83;;;;;;;;;;10563670;28;20440;-91
2023/12/07 18:18:06;;;;;;;47.50;30.02;;;;;;;;;;10563472;28;20471;-93
2023/12/07 18:23:12;;;;;;;47.28;28.38;;;;;;;;;;10564882;28;20970;-92
2023/12/07 18:28:20;;;;;;;44.58;27.00;;;;;;;;;;10545504;28;20459;-93
2023/12/07 18:33:23;;;;;;;48.72;28.05;;;;;;;;;;10541866;27;20488;-93
2023/12/07 18:38:31;;;;;;;44.97;27.57;;;;;;;;;;10551761;27;20436;-93
2023/12/07 18:43:40;;;;;;;47.75;29.23;;;;;;;;;;10551849;28;20445;-93
2023/12/07 18:48:44;;;;;;;41.97;26.27;;;;;;;;;;10560189;28;20402;-93
2023/12/07 18:53:48;;;;;;;40.70;23.70;;;;;;;;;;10552782;27;20420;-93
2023/12/07 18:58:54;;;;;;;42.75;25.85;;;;;;;;;;10556534;27;20559;-91
2023/12/07 19:03:58;;;;;;;39.80;23.42;;;;;;;;;;10525089;27;21315;-91
2023/12/07 19:09:06;;;;;;;39.42;23.42;;;;;;;;;;10543552;27;20552;-91
2023/12/07 19:14:15;;;;;;;39.38;24.02;;;;;;;;;;10538116;28;20536;-92
2023/12/07 19:19:17;;;;;;;40.33;23.20;;;;;;;;;;10537740;28;20439;-92
2023/12/07 19:24:21;;;;;;;37.93;23.30;;;;;;;;;;10543937;27;20443;-91
2023/12/07 19:29:25;;;;;;;38.43;23.00;;;;;;;;;;10543056;27;20554;-93
2023/12/07 19:34:27;;;;;;;37.95;23.65;;;;;;;;;;10547067;27;20528;-93
2023/12/07 19:39:33;;;;;;;39.27;24.57;;;;;;;;;;10544567;28;20448;-94
2023/12/07 19:44:39;;;;;;;42.13;25.55;;;;;;;;;;10534578;27;20584;-93
2023/12/07 19:49:45;;;;;;;41.77;25.80;;;;;;;;;;10539891;28;20845;-93
2023/12/07 19:54:56;;;;;;;41.13;26.40;;;;;;;;;;10548650;28;20503;-94
2023/12/07 20:00:01;;;;;;;47.63;27.80;;;;;;;;;;10563989;28;20880;-91
2023/12/07 20:05:10;;;;;;;42.43;26.27;;;;;;;;;;10556499;28;20415;-92
2023/12/07 20:10:14;;;;;;;43.17;26.92;;;;;;;;;;10552331;28;25161;-96
2023/12/07 20:15:20;;;;;;;45.00;27.47;;;;;;;;;;10550311;28;20482;-94
2023/12/07 20:20:22;;;;;;;45.75;28.00;;;;;;;;;;10570795;28;20445;-95
2023/12/07 20:25:25;;;;;;;41.58;25.50;;;;;;;;;;10570803;28;20463;-95
2023/12/07 20:30:30;;;;;;;40.22;26.00;;;;;;;;;;10574628;27;20432;-93
2023/12/07 20:35:37;;;;;;;42.80;27.85;;;;;;;;;;10573966;27;20412;-93
2023/12/07 20:40:40;;;;;;;42.88;25.05;;;;;;;;;;10559576;28;20854;-93
2023/12/07 20:45:44;;;;;;;48.80;27.75;;;;;;;;;;10573208;28;21063;-94
2023/12/07 20:50:46;;;;;;;48.97;28.48;;;;;;;;;;10573386;28;20472;-92
2023/12/07 20:55:49;;;;;;;57.95;32.72;;;;;;;;;;10584822;28;20406;-93
2023/12/07 21:00:53;;;;;;;59.93;32.03;;;;;;;;;;10570840;28;20418;-94
2023/12/07 21:05:55;;;;;;;55.25;32.13;;;;;;;;;;10569717;28;20437;-95
2023/12/07 21:10:58;;;;;;;49.77;29.10;;;;;;;;;;10576431;28;20765;-93
2023/12/07 21:16:02;;;;;;;62.78;34.38;;;;;;;;;;10564266;28;20425;-92
2023/12/07 21:21:04;;;;;;;63.53;36.10;;;;;;;;;;10566851;28;20431;-92
2023/12/07 21:26:07;;;;;;;53.05;32.30;;;;;;;;;;10565238;28;20441;-93
2023/12/07 21:31:11;;;;;;;42.97;28.40;;;;;;;;;;10571357;27;20489;-90
2023/12/07 21:36:13;;;;;;;38.80;25.05;;;;;;;;;;10583757;28;20414;-92
2023/12/07 21:41:15;;;;;;;42.83;25.87;;;;;;;;;;10567882;28;20416;-91
2023/12/07 21:46:19;;;;;;;39.10;25.52;;;;;;;;;;10574230;28;20440;-91
2023/12/07 21:51:21;;;;;;;40.47;25.90;;;;;;;;;;10569901;28;20473;-91
2023/12/07 21:56:24;;;;;;;41.92;25.88;;;;;;;;;;10578740;28;20451;-90
2023/12/07 22:01:28;;;;;;;38.57;25.07;;;;;;;;;;10579553;27;20409;-91
2023/12/07 22:06:30;;;;;;;42.10;27.25;;;;;;;;;;10573694;28;20424;-91
2023/12/07 22:11:32;;;;;;;41.50;26.83;;;;;;;;;;10575501;28;20443;-92
2023/12/07 22:16:41;;;;;;;38.05;25.27;;;;;;;;;;10577872;27;20411;-91
2023/12/07 22:21:43;;;;;;;38.97;23.08;;;;;;;;;;10565404;27;20448;-91
2023/12/07 22:26:46;;;;;;;38.15;21.23;;;;;;;;;;10562069;28;20450;-92
2023/12/07 22:31:50;;;;;;;35.07;21.40;;;;;;;;;;10566917;28;20426;-93
2023/12/07 22:36:52;;;;;;;27.80;18.15;;;;;;;;;;10567196;28;20452;-90
2023/12/07 22:41:54;;;;;;;24.08;15.52;;;;;;;;;;10561288;28;20488;-94
2023/12/07 22:46:58;;;;;;;26.67;15.93;;;;;;;;;;10575380;28;20422;-93
2023/12/07 22:52:01;;;;;;;27.77;15.93;;;;;;;;;;10566737;28;20433;-93
2023/12/07 22:57:04;;;;;;;29.57;17.77;;;;;;;;;;10563587;28;20396;-92
2023/12/07 23:02:07;;;;;;;26.25;15.70;;;;;;;;;;10565787;28;20400;-92
2023/12/07 23:07:10;;;;;;;25.10;14.87;;;;;;;;;;10559410;28;20468;-93
2023/12/07 23:12:12;;;;;;;25.70;13.73;;;;;;;;;;10552991;28;20403;-92
2023/12/07 23:17:16;;;;;;;23.05;13.52;;;;;;;;;;10568852;27;21288;-93
2023/12/07 23:22:18;;;;;;;19.90;12.13;;;;;;;;;;10569909;28;20395;-93
2023/12/07 23:27:20;;;;;;;19.30;12.15;;;;;;;;;;10560271;28;20422;-90
2023/12/07 23:32:24;;;;;;;18.67;11.43;;;;;;;;;;10563442;28;20442;-89
2023/12/07 23:37:27;;;;;;;22.10;11.83;;;;;;;;;;10573050;28;20489;-90
2023/12/07 23:42:30;;;;;;;17.30;11.03;;;;;;;;;;10562208;28;20412;-90
2023/12/07 23:47:33;;;;;;;18.42;11.15;;;;;;;;;;10565567;27;20487;-89
2023/12/07 23:52:36;;;;;;;16.50;10.43;;;;;;;;;;10580127;27;20391;-89
2023/12/07 23:57:38;;;;;;;20.77;11.88;;;;;;;;;;10566283;28;20436;-89
